Time;durP1;ratioP1;P1;durP2;ratioP2;P2;SDS_P1;SDS_P2;PMS_P1;PMS_P2;Temp;Humidity;BMP_temperature;BMP_pressure;BME280_temperature;BME280_humidity;BME280_pressure;Samples;Min_cycle;Max_cycle;Signal;HPM_P1;HPM_P2
2022/11/22 00:01:58;;;;;;;23.13;13.68;;;2.30;99.90;;;;;;5070867;28;20101;-59
2022/11/22 00:04:23;;;;;;;22.45;12.93;;;2.20;99.90;;;;;;5090978;28;20108;-58
2022/11/22 00:06:49;;;;;;;29.63;12.85;;;2.10;99.90;;;;;;5087598;28;20056;-59
2022/11/22 00:09:15;;;;;;;20.00;11.73;;;2.10;99.90;;;;;;5090374;28;20089;-62
2022/11/22 00:11:40;;;;;;;21.83;13.50;;;2.10;99.90;;;;;;5089932;27;20169;-59
2022/11/22 00:14:06;;;;;;;24.90;14.52;;;2.10;99.90;;;;;;5090922;28;20051;-58
2022/11/22 00:16:33;;;;;;;23.48;14.20;;;2.00;99.90;;;;;;5082446;28;20052;-57
2022/11/22 00:18:59;;;;;;;21.63;13.43;;;2.00;99.90;;;;;;5082659;28;20513;-59
2022/11/22 00:21:25;;;;;;;25.50;13.05;;;2.00;99.90;;;;;;5084178;28;20080;-57
2022/11/22 00:23:57;;;;;;;21.58;13.88;;;2.00;99.90;;;;;;5079843;28;20386;-57
2022/11/22 00:26:24;;;;;;;23.77;12.55;;;2.00;99.90;;;;;;5081116;27;20057;-58
2022/11/22 00:28:49;;;;;;;24.10;14.25;;;1.90;99.90;;;;;;5083154;27;20091;-57
2022/11/22 00:31:15;;;;;;;26.05;13.18;;;2.00;99.90;;;;;;5097567;28;20059;-57
2022/11/22 00:33:41;;;;;;;21.20;12.45;;;1.90;99.90;;;;;;5084002;28;20056;-57
2022/11/22 00:36:07;;;;;;;29.75;14.93;;;1.90;99.90;;;;;;5090474;28;20503;-57
2022/11/22 00:38:32;;;;;;;26.60;13.93;;;1.90;99.90;;;;;;5081649;28;20101;-56
2022/11/22 00:40:58;;;;;;;27.48;14.73;;;1.90;99.90;;;;;;5082605;28;20047;-57
2022/11/22 00:43:24;;;;;;;25.02;14.00;;;2.00;99.90;;;;;;5072989;28;20044;-57
2022/11/22 00:45:49;;;;;;;22.50;13.85;;;2.00;99.90;;;;;;5077807;28;20154;-59
2022/11/22 00:48:15;;;;;;;25.27;13.02;;;2.00;99.90;;;;;;5077411;28;20075;-58
2022/11/22 00:50:41;;;;;;;26.33;14.73;;;2.00;99.90;;;;;;5061141;28;20497;-57
2022/11/22 00:53:06;;;;;;;28.48;14.32;;;2.00;99.90;;;;;;5053393;28;20053;-57
2022/11/22 00:55:32;;;;;;;27.20;14.75;;;2.00;99.90;;;;;;5060639;28;20044;-57
2022/11/22 00:57:58;;;;;;;24.55;13.23;;;2.00;99.90;;;;;;5064395;28;20391;-57
2022/11/22 01:00:23;;;;;;;25.70;13.95;;;2.00;99.90;;;;;;5059661;28;20135;-59
2022/11/22 01:02:49;;;;;;;26.00;14.25;;;2.00;99.90;;;;;;5075168;27;20907;-59
2022/11/22 01:05:16;;;;;;;25.30;14.20;;;2.00;99.90;;;;;;5101106;27;20055;-59
2022/11/22 01:07:43;;;;;;;33.25;15.90;;;2.00;99.90;;;;;;5078094;28;20142;-63
2022/11/22 01:10:09;;;;;;;31.10;14.52;;;2.00;99.90;;;;;;5081577;28;20051;-62
2022/11/22 01:12:35;;;;;;;24.98;14.50;;;2.00;99.90;;;;;;5079883;28;20062;-57
2022/11/22 01:15:01;;;;;;;28.92;16.42;;;2.30;99.90;;;;;;5079451;28;20056;-58
2022/11/22 01:17:27;;;;;;;29.60;14.80;;;2.10;99.90;;;;;;5081194;28;20506;-60
2022/11/22 01:19:52;;;;;;;29.83;15.98;;;2.10;99.90;;;;;;5059851;28;20067;-58
2022/11/22 01:22:18;;;;;;;29.92;14.95;;;2.10;99.90;;;;;;5101660;28;20062;-59
2022/11/22 01:24:44;;;;;;;30.00;16.60;;;2.10;99.90;;;;;;5088706;28;20062;-60
2022/11/22 01:27:10;;;;;;;27.02;15.57;;;2.10;99.90;;;;;;5081122;28;20059;-58
2022/11/22 01:29:36;;;;;;;27.70;15.95;;;2.10;99.90;;;;;;5078780;28;20109;-57
2022/11/22 01:32:01;;;;;;;34.58;17.10;;;2.10;99.90;;;;;;5045639;28;20174;-59
2022/11/22 01:34:27;;;;;;;33.60;16.15;;;2.10;99.90;;;;;;5081019;28;20052;-61
2022/11/22 01:36:53;;;;;;;31.83;16.15;;;2.20;99.90;;;;;;5077635;28;20394;-57
2022/11/22 01:39:18;;;;;;;29.80;15.63;;;2.20;99.90;;;;;;5080906;28;20055;-58
2022/11/22 01:41:44;;;;;;;30.73;16.67;;;2.20;99.90;;;;;;5078421;28;20062;-59
2022/11/22 01:44:27;;;;;;;31.88;16.85;;;2.20;99.90;;;;;;5080553;28;20516;-57
2022/11/22 01:46:59;;;;;;;29.25;15.70;;;2.30;99.90;;;;;;5078491;28;20052;-58
2022/11/22 01:49:31;;;;;;;33.38;16.67;;;2.30;99.90;;;;;;5069961;28;20056;-58
2022/11/22 01:52:18;;;;;;;31.25;17.08;;;2.30;99.90;;;;;;5078899;28;20142;-58
2022/11/22 01:54:49;;;;;;;33.53;19.02;;;2.30;99.90;;;;;;5078523;28;20130;-58
2022/11/22 01:57:19;;;;;;;32.75;17.55;;;2.30;99.90;;;;;;5080455;28;20084;-58
2022/11/22 01:59:52;;;;;;;28.88;16.15;;;2.30;99.90;;;;;;5078560;28;20121;-58
2022/11/22 02:02:18;;;;;;;35.58;18.55;;;2.30;99.90;;;;;;5080417;28;20040;-58
2022/11/22 02:04:45;;;;;;;33.58;17.17;;;2.40;99.90;;;;;;5077407;28;20082;-57
2022/11/22 02:07:27;;;;;;;35.45;17.77;;;2.40;99.90;;;;;;5080793;28;20508;-59
2022/11/22 02:09:54;;;;;;;30.65;17.40;;;2.40;99.90;;;;;;5077340;28;20155;-58
2022/11/22 02:12:25;;;;;;;33.03;17.55;;;2.30;99.90;;;;;;5062201;28;20056;-63
2022/11/22 02:14:52;;;;;;;30.67;17.80;;;2.30;99.90;;;;;;5077644;28;20143;-62
2022/11/22 02:17:17;;;;;;;30.85;17.10;;;2.40;99.90;;;;;;5061613;28;20505;-59
2022/11/22 02:19:48;;;;;;;25.75;16.23;;;2.70;99.90;;;;;;5076243;28;20054;-57
2022/11/22 02:25:02;;;;;;;25.63;15.48;;;2.30;99.90;;;;;;5077949;28;20421;-59
2022/11/22 02:27:32;;;;;;;30.02;16.75;;;2.40;99.90;;;;;;5080677;28;20054;-56
2022/11/22 02:29:57;;;;;;;27.92;17.10;;;2.30;99.90;;;;;;5086419;28;20052;-57
2022/11/22 02:32:23;;;;;;;32.10;16.45;;;2.40;99.90;;;;;;5089091;28;20060;-58
2022/11/22 02:34:50;;;;;;;25.95;15.30;;;2.30;99.90;;;;;;5078284;28;20527;-57
2022/11/22 02:37:26;;;;;;;28.70;16.40;;;2.30;99.90;;;;;;5079844;28;20072;-57
2022/11/22 02:39:57;;;;;;;29.17;16.02;;;2.40;99.90;;;;;;5078285;28;20059;-57
2022/11/22 02:42:24;;;;;;;28.23;14.43;;;2.50;99.90;;;;;;5080630;28;20109;-57
2022/11/22 02:44:50;;;;;;;29.80;16.50;;;2.40;99.90;;;;;;5078007;28;20091;-57
2022/11/22 02:47:16;;;;;;;28.83;15.57;;;2.40;99.90;;;;;;5081975;28;20146;-57
2022/11/22 02:49:41;;;;;;;28.30;15.70;;;2.40;99.90;;;;;;5040003;28;1105706;-57
2022/11/22 02:52:07;;;;;;;26.02;14.95;;;2.40;99.90;;;;;;5080916;28;20512;-57
2022/11/22 02:54:33;;;;;;;26.92;16.13;;;2.40;99.90;;;;;;5080685;28;20056;-57
2022/11/22 02:56:58;;;;;;;29.73;15.45;;;2.40;99.90;;;;;;5080527;28;20094;-57
2022/11/22 02:59:24;;;;;;;26.77;15.48;;;2.40;99.90;;;;;;5081684;28;20060;-57
2022/11/22 03:01:50;;;;;;;25.30;14.65;;;2.40;99.90;;;;;;5079122;28;20059;-58
2022/11/22 03:04:23;;;;;;;27.67;15.55;;;2.40;99.90;;;;;;5084301;28;20096;-58
2022/11/22 03:06:54;;;;;;;24.85;14.13;;;2.40;99.90;;;;;;5082598;28;20067;-57
2022/11/22 03:09:20;;;;;;;28.33;14.82;;;2.40;99.90;;;;;;5080061;27;20095;-57
2022/11/22 03:11:46;;;;;;;24.58;15.43;;;2.50;99.90;;;;;;5095099;27;20070;-57
2022/11/22 03:14:14;;;;;;;25.83;15.18;;;2.50;99.90;;;;;;5090663;28;20497;-57
2022/11/22 03:16:41;;;;;;;27.23;15.73;;;2.50;99.90;;;;;;5080842;28;20080;-58
2022/11/22 03:19:07;;;;;;;22.13;13.85;;;2.50;99.90;;;;;;5084039;28;20060;-57
2022/11/22 03:21:32;;;;;;;27.67;14.65;;;2.50;99.90;;;;;;5083170;28;20064;-58
2022/11/22 03:23:58;;;;;;;25.17;14.88;;;2.50;99.90;;;;;;5082825;28;20131;-57
2022/11/22 03:26:24;;;;;;;24.27;13.65;;;2.60;99.90;;;;;;5083732;28;20146;-58
2022/11/22 03:28:49;;;;;;;22.73;12.82;;;2.60;99.90;;;;;;5081508;28;20060;-57
2022/11/22 03:31:15;;;;;;;30.17;15.60;;;2.60;99.90;;;;;;5084100;28;20565;-61
2022/11/22 03:33:41;;;;;;;32.28;14.90;;;3.10;99.90;;;;;;5081455;28;20534;-62
2022/11/22 03:36:06;;;;;;;25.70;14.85;;;2.60;99.90;;;;;;5076988;27;20797;-62
2022/11/22 03:38:33;;;;;;;25.23;14.85;;;2.60;99.90;;;;;;5080735;28;20547;-57
2022/11/22 03:40:59;;;;;;;26.50;14.70;;;2.70;99.90;;;;;;5064868;28;20533;-57
2022/11/22 03:43:25;;;;;;;29.15;13.57;;;2.70;99.90;;;;;;5084154;28;20147;-57
2022/11/22 03:45:51;;;;;;;33.42;16.27;;;2.70;99.90;;;;;;5082638;28;20767;-57
2022/11/22 03:48:17;;;;;;;28.73;15.48;;;2.70;99.90;;;;;;5084262;28;20504;-57
2022/11/22 03:50:43;;;;;;;30.83;15.40;;;2.70;99.90;;;;;;5081971;28;20075;-57
2022/11/22 03:53:09;;;;;;;26.83;13.95;;;2.70;99.90;;;;;;5084842;28;20516;-57
2022/11/22 03:55:35;;;;;;;31.23;14.77;;;2.70;99.90;;;;;;5074400;28;20067;-57
2022/11/22 03:58:00;;;;;;;26.10;13.90;;;3.40;99.90;;;;;;5073924;28;20049;-58
2022/11/22 04:00:26;;;;;;;25.85;12.55;;;4.20;99.90;;;;;;5093382;27;20515;-57
2022/11/22 04:02:52;;;;;;;25.63;14.07;;;2.80;99.90;;;;;;5089784;28;20060;-58
2022/11/22 04:05:17;;;;;;;19.70;11.57;;;2.80;99.90;;;;;;5084889;28;20146;-59
2022/11/22 04:07:43;;;;;;;24.58;12.45;;;2.90;99.90;;;;;;5081408;28;20071;-57
2022/11/22 04:10:09;;;;;;;22.38;11.88;;;2.90;99.90;;;;;;5080121;28;20063;-61
2022/11/22 04:12:35;;;;;;;18.63;11.93;;;2.90;99.90;;;;;;5083226;28;20059;-57
2022/11/22 04:15:07;;;;;;;21.88;11.70;;;2.90;99.90;;;;;;5083903;28;20063;-58
2022/11/22 04:17:44;;;;;;;22.65;12.93;;;3.30;99.90;;;;;;5082811;28;20048;-57
2022/11/22 04:22:59;;;;;;;22.38;12.88;;;2.90;99.90;;;;;;5107187;27;20055;-58
2022/11/22 04:25:27;;;;;;;19.77;12.43;;;2.90;99.90;;;;;;5084019;28;20152;-58
2022/11/22 04:27:53;;;;;;;21.67;11.35;;;3.00;99.90;;;;;;5084275;28;20058;-59
2022/11/22 04:30:19;;;;;;;24.83;13.52;;;3.00;99.90;;;;;;5084057;28;20051;-59
2022/11/22 04:32:45;;;;;;;22.85;12.05;;;3.00;99.90;;;;;;5091313;28;20054;-59
2022/11/22 04:35:17;;;;;;;21.67;11.85;;;3.00;99.90;;;;;;5083817;28;20052;-57
2022/11/22 04:37:51;;;;;;;23.58;13.05;;;3.00;99.90;;;;;;5081099;28;20067;-57
2022/11/22 04:40:17;;;;;;;21.25;11.32;;;4.70;99.90;;;;;;5083639;28;20486;-60
2022/11/22 04:45:27;;;;;;;22.05;12.45;;;3.00;99.90;;;;;;5083920;28;20139;-59
2022/11/22 04:47:59;;;;;;;20.85;12.38;;;3.00;99.90;;;;;;5080593;28;20469;-61
2022/11/22 04:53:17;;;;;;;17.70;11.45;;;3.10;99.90;;;;;;5092208;27;20039;-60
2022/11/22 04:55:45;;;;;;;21.73;11.77;;;3.60;99.90;;;;;;5091091;28;20040;-61
2022/11/22 04:58:11;;;;;;;19.13;11.27;;;3.10;99.90;;;;;;5088846;28;20063;-58
2022/11/22 05:00:38;;;;;;;23.98;12.50;;;3.10;99.90;;;;;;5089841;28;20052;-57
2022/11/22 05:03:04;;;;;;;23.08;12.77;;;3.20;99.90;;;;;;5090680;28;20075;-57
2022/11/22 05:05:35;;;;;;;21.98;12.35;;;3.10;99.90;;;;;;5091102;28;20132;-57
2022/11/22 05:08:01;;;;;;;18.10;11.60;;;3.20;99.90;;;;;;5089577;28;20055;-57
2022/11/22 05:10:27;;;;;;;20.67;12.23;;;3.20;99.90;;;;;;5083324;28;20147;-57
2022/11/22 05:12:54;;;;;;;19.67;11.32;;;3.40;99.90;;;;;;5080806;28;21290;-57
2022/11/22 05:15:19;;;;;;;18.55;11.65;;;3.20;99.90;;;;;;5082995;28;20087;-57
2022/11/22 05:17:45;;;;;;;19.45;11.07;;;3.20;99.90;;;;;;5068410;28;20084;-58
2022/11/22 05:20:11;;;;;;;21.10;12.65;;;3.20;99.90;;;;;;5089162;28;20056;-59
2022/11/22 05:25:21;;;;;;;14.88;10.50;;;3.30;99.90;;;;;;5085530;28;20043;-58
2022/11/22 05:27:46;;;;;;;20.15;12.55;;;3.30;99.90;;;;;;5081281;28;20089;-58
2022/11/22 05:30:12;;;;;;;22.90;12.35;;;3.30;99.90;;;;;;5082186;28;20101;-58
2022/11/22 05:32:38;;;;;;;21.13;13.35;;;3.30;99.90;;;;;;5080425;28;20060;-60
2022/11/22 05:35:04;;;;;;;20.98;11.63;;;3.30;99.90;;;;;;5081915;28;20462;-57
2022/11/22 05:37:32;;;;;;;18.67;12.13;;;3.30;99.90;;;;;;5090492;28;20117;-58
2022/11/22 05:39:58;;;;;;;21.52;12.07;;;3.30;99.90;;;;;;5090020;28;20511;-58
2022/11/22 05:42:24;;;;;;;19.92;12.75;;;3.40;99.90;;;;;;5086593;28;20048;-57
2022/11/22 05:44:49;;;;;;;20.08;12.50;;;3.50;99.90;;;;;;5078861;28;20074;-58
2022/11/22 05:47:15;;;;;;;17.05;10.40;;;3.40;99.90;;;;;;5082599;28;20465;-58
2022/11/22 05:49:40;;;;;;;21.05;11.63;;;3.60;99.90;;;;;;5079955;28;20056;-59
2022/11/22 05:52:07;;;;;;;17.52;10.55;;;3.40;99.90;;;;;;5082677;28;20052;-57
2022/11/22 05:54:33;;;;;;;18.35;10.75;;;3.40;99.90;;;;;;5080634;28;20059;-57
2022/11/22 05:56:58;;;;;;;18.33;10.73;;;3.40;99.90;;;;;;5082037;28;21686;-58
2022/11/22 05:59:24;;;;;;;20.00;11.18;;;3.40;99.90;;;;;;5081789;28;20055;-57
2022/11/22 06:01:50;;;;;;;24.80;12.95;;;3.40;99.90;;;;;;5079102;28;20056;-58
2022/11/22 06:04:15;;;;;;;16.25;10.10;;;3.60;99.90;;;;;;5081973;28;20064;-57
2022/11/22 06:06:41;;;;;;;22.30;11.02;;;3.50;99.90;;;;;;5087882;28;20553;-56
2022/11/22 06:09:07;;;;;;;17.17;11.25;;;3.40;99.90;;;;;;5080552;28;20048;-57
2022/11/22 06:11:33;;;;;;;19.40;11.15;;;3.50;99.90;;;;;;5081690;28;20052;-58
2022/11/22 06:14:02;;;;;;;19.88;10.70;;;3.50;99.90;;;;;;5080953;28;20197;-57
2022/11/22 06:16:31;;;;;;;18.30;11.45;;;3.50;99.90;;;;;;5077599;28;20056;-58
2022/11/22 06:18:57;;;;;;;17.13;11.10;;;3.50;99.90;;;;;;5082362;28;20139;-58
2022/11/22 06:21:24;;;;;;;18.58;11.70;;;3.50;99.90;;;;;;5089447;28;20135;-59
2022/11/22 06:23:52;;;;;;;15.40;10.50;;;3.60;99.90;;;;;;5088783;28;20382;-59
2022/11/22 06:26:21;;;;;;;17.95;11.48;;;3.50;99.90;;;;;;5090618;28;20117;-61
2022/11/22 06:28:48;;;;;;;20.17;13.07;;;3.50;99.90;;;;;;5087765;28;20048;-61
2022/11/22 06:31:22;;;;;;;18.98;11.52;;;3.60;99.90;;;;;;5066328;28;20063;-58
2022/11/22 06:33:48;;;;;;;16.02;10.65;;;3.60;99.90;;;;;;5078946;28;20052;-58
2022/11/22 06:36:16;;;;;;;18.33;10.70;;;3.70;99.90;;;;;;5075200;28;20051;-58
2022/11/22 06:38:43;;;;;;;17.20;9.75;;;3.60;99.90;;;;;;5064090;27;20408;-60
2022/11/22 06:41:12;;;;;;;24.10;12.40;;;3.60;99.90;;;;;;5092360;28;20485;-60
2022/11/22 06:43:39;;;;;;;19.90;11.27;;;4.10;99.90;;;;;;5083614;28;20063;-59
2022/11/22 06:46:06;;;;;;;19.92;11.02;;;3.60;99.90;;;;;;5084974;28;20056;-57
2022/11/22 06:48:34;;;;;;;21.45;11.70;;;3.60;99.90;;;;;;5084270;28;20513;-59
2022/11/22 06:51:04;;;;;;;19.88;11.55;;;3.90;99.90;;;;;;5083337;28;20501;-56
2022/11/22 06:53:34;;;;;;;15.50;10.32;;;3.70;99.90;;;;;;5083149;28;20071;-56
2022/11/22 06:56:18;;;;;;;14.93;10.88;;;3.70;99.90;;;;;;5082043;28;20064;-56
2022/11/22 06:58:44;;;;;;;19.35;10.77;;;3.70;99.90;;;;;;5091460;28;20420;-57
2022/11/22 07:01:21;;;;;;;17.55;11.45;;;3.70;99.90;;;;;;5083042;28;20059;-58
2022/11/22 07:03:48;;;;;;;17.55;10.13;;;3.70;99.90;;;;;;5097831;28;20400;-57
2022/11/22 07:06:15;;;;;;;16.00;10.68;;;3.80;99.90;;;;;;5090472;28;20059;-57
2022/11/22 07:08:42;;;;;;;21.05;10.85;;;3.80;99.90;;;;;;5042245;28;1100123;-57
2022/11/22 07:11:10;;;;;;;19.35;10.43;;;3.80;99.90;;;;;;5073101;28;20048;-57
2022/11/22 07:13:36;;;;;;;20.10;11.32;;;3.80;99.90;;;;;;5090696;28;20044;-56
2022/11/22 07:16:04;;;;;;;16.25;10.18;;;3.80;99.90;;;;;;5082058;28;20063;-57
2022/11/22 07:18:33;;;;;;;17.23;10.70;;;3.90;99.90;;;;;;5089736;28;20134;-57
2022/11/22 07:21:01;;;;;;;16.08;10.05;;;3.90;99.90;;;;;;5091368;28;20087;-57
2022/11/22 07:23:27;;;;;;;16.08;10.18;;;3.90;99.90;;;;;;5091527;28;20062;-57
2022/11/22 07:26:20;;;;;;;16.15;9.48;;;4.10;99.90;;;;;;5085408;28;20067;-57
2022/11/22 07:28:46;;;;;;;18.15;10.68;;;4.00;99.90;;;;;;5067153;28;20048;-57
2022/11/22 07:31:14;;;;;;;18.15;11.40;;;4.00;99.90;;;;;;5082806;28;20047;-57
2022/11/22 07:33:41;;;;;;;18.38;11.13;;;4.00;99.90;;;;;;5080369;28;20075;-56
2022/11/22 07:36:18;;;;;;;18.08;11.02;;;4.00;99.90;;;;;;5082662;28;20147;-57
2022/11/22 07:38:44;;;;;;;16.58;10.63;;;4.00;99.90;;;;;;5060479;28;20082;-57
2022/11/22 07:41:10;;;;;;;17.67;10.52;;;4.10;99.90;;;;;;5074014;28;20403;-57
2022/11/22 07:43:36;;;;;;;18.92;11.57;;;4.10;99.90;;;;;;5082823;28;20409;-56
2022/11/22 07:46:15;;;;;;;19.98;10.35;;;4.50;99.90;;;;;;5082863;28;20083;-57
2022/11/22 07:48:41;;;;;;;17.23;11.68;;;4.10;99.90;;;;;;5081169;28;20128;-57
2022/11/22 07:51:07;;;;;;;19.77;11.00;;;4.20;99.90;;;;;;5076395;27;21029;-56
2022/11/22 07:53:34;;;;;;;18.95;10.98;;;4.20;99.90;;;;;;5095929;27;20071;-56
2022/11/22 07:56:04;;;;;;;21.50;11.90;;;4.20;99.90;;;;;;5075533;28;20056;-59
2022/11/22 07:58:34;;;;;;;19.27;12.35;;;4.20;99.90;;;;;;5081347;28;20143;-56
2022/11/22 08:01:15;;;;;;;17.52;11.05;;;4.30;99.90;;;;;;5088238;28;20052;-57
2022/11/22 08:03:41;;;;;;;21.63;9.70;;;4.30;99.90;;;;;;5088957;28;20051;-57
2022/11/22 08:06:09;;;;;;;14.23;10.48;;;4.40;99.90;;;;;;5075270;27;20054;-57
2022/11/22 08:08:35;;;;;;;22.73;12.15;;;4.40;99.90;;;;;;5097460;27;20048;-59
2022/11/22 08:11:01;;;;;;;23.30;11.30;;;4.40;99.90;;;;;;5091082;28;20060;-57
2022/11/22 08:13:31;;;;;;;19.60;11.50;;;4.50;99.90;;;;;;5091779;28;20078;-57
2022/11/22 08:16:06;;;;;;;24.70;12.52;;;4.50;99.90;;;;;;5089961;28;20498;-57
2022/11/22 08:18:33;;;;;;;20.45;11.35;;;4.60;99.90;;;;;;5070205;28;20051;-55
2022/11/22 08:21:09;;;;;;;18.42;10.63;;;4.80;99.90;;;;;;5089704;28;20067;-58
2022/11/22 08:23:35;;;;;;;15.52;9.93;;;4.70;99.90;;;;;;5070870;28;20070;-58
2022/11/22 08:26:01;;;;;;;16.55;10.50;;;4.80;99.90;;;;;;5081601;28;20167;-59
2022/11/22 08:28:27;;;;;;;18.42;9.48;;;5.00;99.90;;;;;;5091553;28;20143;-60
2022/11/22 08:31:07;;;;;;;16.40;8.25;;;4.90;99.90;;;;;;5082211;28;20709;-60
2022/11/22 08:33:33;;;;;;;20.08;10.02;;;5.10;99.90;;;;;;5090479;28;20462;-61
2022/11/22 08:35:58;;;;;;;22.23;6.93;;;5.20;99.90;;;;;;5090732;28;20120;-57
2022/11/22 08:38:25;;;;;;;13.15;7.40;;;5.30;99.90;;;;;;5091708;28;20071;-59
2022/11/22 08:40:50;;;;;;;17.35;7.38;;;5.30;99.90;;;;;;5089108;28;20064;-58
2022/11/22 08:43:17;;;;;;;12.65;6.47;;;5.90;99.90;;;;;;5083215;28;20060;-58
2022/11/22 08:45:43;;;;;;;18.45;6.45;;;5.50;99.90;;;;;;5080865;28;20052;-56
2022/11/22 08:48:08;;;;;;;12.68;6.22;;;5.50;99.90;;;;;;5090631;28;20063;-57
2022/11/22 08:50:34;;;;;;;14.73;5.45;;;5.60;99.90;;;;;;5090419;28;20063;-56
2022/11/22 08:53:00;;;;;;;13.63;5.57;;;5.60;99.90;;;;;;5081013;28;20056;-57
2022/11/22 08:55:26;;;;;;;12.32;6.35;;;5.70;99.90;;;;;;5082208;28;20396;-57
2022/11/22 08:57:52;;;;;;;15.30;4.97;;;5.80;99.90;;;;;;5086857;28;20056;-57
2022/11/22 09:00:17;;;;;;;12.27;5.38;;;5.90;99.90;;;;;;5075329;28;20500;-57
2022/11/22 09:02:43;;;;;;;18.33;4.75;;;5.90;99.90;;;;;;5088008;28;20113;-56
2022/11/22 09:05:09;;;;;;;10.45;3.45;;;5.90;99.90;;;;;;5081391;28;20076;-57
2022/11/22 09:07:34;;;;;;;9.10;4.13;;;6.00;99.90;;;;;;5061447;28;20060;-56
2022/11/22 09:10:00;;;;;;;10.52;4.60;;;6.00;99.90;;;;;;5087896;28;20479;-57
2022/11/22 09:12:26;;;;;;;9.77;3.90;;;6.10;99.90;;;;;;5071112;28;20044;-57
2022/11/22 09:14:52;;;;;;;12.80;3.60;;;6.00;99.90;;;;;;5078979;28;20138;-58
2022/11/22 09:17:17;;;;;;;8.88;3.63;;;6.10;99.90;;;;;;5088858;28;20452;-60
2022/11/22 09:19:43;;;;;;;10.13;3.42;;;6.60;99.90;;;;;;5087560;28;20054;-57
2022/11/22 09:22:09;;;;;;;12.98;4.15;;;6.20;99.90;;;;;;5080561;28;20056;-59
2022/11/22 09:24:35;;;;;;;9.20;3.17;;;6.20;99.90;;;;;;5082121;28;20492;-57
2022/11/22 09:27:00;;;;;;;10.25;4.28;;;6.40;99.90;;;;;;5080088;28;20093;-57
2022/11/22 09:29:26;;;;;;;12.23;3.75;;;6.30;99.90;;;;;;5081186;28;20481;-57
2022/11/22 09:31:52;;;;;;;10.75;3.85;;;6.40;99.90;;;;;;5068134;28;20132;-57
2022/11/22 09:34:18;;;;;;;11.23;3.45;;;6.50;99.90;;;;;;5068684;28;20134;-57
2022/11/22 09:36:43;;;;;;;12.45;3.60;;;6.40;99.90;;;;;;5081227;28;20051;-57
2022/11/22 09:39:09;;;;;;;8.65;3.03;;;6.50;99.90;;;;;;5065777;28;20497;-57
2022/11/22 09:41:50;;;;;;;7.55;2.83;;;6.50;99.90;;;;;;5088026;28;20047;-57
2022/11/22 09:44:31;;;;;;;8.40;3.22;;;6.60;99.90;;;;;;5086790;28;20162;-61
2022/11/22 09:47:19;;;;;;;8.02;2.75;;;5.50;99.90;;;;;;5086004;28;20052;-58
2022/11/22 09:49:50;;;;;;;12.20;2.60;;;6.70;99.90;;;;;;5075879;28;20059;-58
2022/11/22 09:52:21;;;;;;;10.77;2.83;;;6.70;99.90;;;;;;5078969;28;20050;-57
2022/11/22 09:54:56;;;;;;;10.02;2.75;;;6.60;99.90;;;;;;5057007;28;20060;-57
2022/11/22 10:00:03;;;;;;;6.70;1.67;;;6.60;99.90;;;;;;5077150;28;20062;-56
2022/11/22 10:05:01;;;;;;;6.95;2.30;;;6.50;99.90;;;;;;5087019;28;20050;-57
2022/11/22 10:07:31;;;;;;;16.65;4.47;;;6.50;99.90;;;;;;5080091;28;20085;-57
2022/11/22 10:10:10;;;;;;;5.28;2.22;;;6.50;99.90;;;;;;5071618;28;20581;-57
2022/11/22 10:12:44;;;;;;;12.30;3.67;;;6.60;99.90;;;;;;5082822;28;20091;-56
2022/11/22 10:17:58;;;;;;;7.63;2.05;;;6.60;99.90;;;;;;5089920;28;20106;-57
2022/11/22 10:20:25;;;;;;;13.25;2.28;;;6.70;99.90;;;;;;5083791;28;20490;-60
2022/11/22 10:22:51;;;;;;;8.40;2.67;;;6.80;99.90;;;;;;5081660;28;20056;-60
2022/11/22 10:25:26;;;;;;;10.13;2.42;;;7.30;99.90;;;;;;5086084;28;20145;-63
2022/11/22 10:27:58;;;;;;;5.97;2.72;;;6.90;99.90;;;;;;5081993;28;21336;-64
2022/11/22 10:30:24;;;;;;;13.35;2.63;;;7.30;99.90;;;;;;5083484;28;20044;-59
2022/11/22 10:33:07;;;;;;;10.00;2.92;;;6.80;99.90;;;;;;5082027;28;20599;-58
2022/11/22 10:36:00;;;;;;;5.68;2.00;;;6.90;99.90;;;;;;5082075;28;20048;-59
2022/11/22 10:41:02;;;;;;;11.40;1.90;;;6.90;99.90;;;;;;5080449;28;20394;-57
2022/11/22 10:43:31;;;;;;;6.32;2.63;;;6.90;99.90;;;;;;5087790;28;20051;-57
2022/11/22 10:46:00;;;;;;;3.83;2.05;;;6.90;99.90;;;;;;5069956;28;20052;-60
2022/11/22 10:48:31;;;;;;;10.73;2.53;;;6.80;99.90;;;;;;5073982;27;20057;-59
2022/11/22 10:51:24;;;;;;;7.22;1.50;;;6.80;99.90;;;;;;5065721;28;20501;-61
2022/11/22 10:54:16;;;;;;;9.18;1.30;;;6.90;99.90;;;;;;5090748;27;20848;-58
2022/11/22 10:56:49;;;;;;;12.20;2.63;;;6.80;99.90;;;;;;5067018;28;20506;-64
2022/11/22 11:02:13;;;;;;;13.05;2.53;;;7.00;99.90;;;;;;5084241;27;20058;-60
2022/11/22 11:04:41;;;;;;;3.55;1.58;;;7.20;99.90;;;;;;5083236;28;20502;-63
2022/11/22 11:07:15;;;;;;;11.02;2.55;;;7.20;99.90;;;;;;5086418;27;20060;-57
2022/11/22 11:09:49;;;;;;;;;;;7.40;99.90;;;;;;5081017;27;20044;-56
2022/11/22 11:12:20;;;;;;;4.43;1.35;;;7.70;99.90;;;;;;5078353;27;19927;-57
2022/11/22 11:14:50;;;;;;;4.95;1.40;;;7.90;99.90;;;;;;5058575;28;20072;-57
2022/11/22 11:17:24;;;;;;;7.25;1.70;;;8.10;99.90;;;;;;5073177;28;20056;-57
2022/11/22 11:19:54;;;;;;;15.27;2.00;;;8.00;99.90;;;;;;5078951;28;20067;-57
2022/11/22 11:22:25;;;;;;;9.85;1.98;;;8.10;99.90;;;;;;5061680;28;20137;-57
2022/11/22 11:24:50;;;;;;;7.15;1.40;;;8.10;99.90;;;;;;5062713;28;20064;-57
2022/11/22 11:27:19;;;;;;;5.25;1.48;;;8.10;99.90;;;;;;5034180;28;1217351;-57
2022/11/22 11:29:54;;;;;;;3.22;1.23;;;8.20;99.90;;;;;;5072283;28;20147;-57
2022/11/22 11:32:20;;;;;;;5.25;1.20;;;8.30;99.90;;;;;;5081202;27;20106;-57
2022/11/22 11:34:56;;;;;;;7.57;2.28;;;8.30;99.90;;;;;;5084918;28;20560;-57
2022/11/22 11:37:31;;;;;;;8.32;1.70;;;8.30;99.90;;;;;;5082223;28;20059;-57
2022/11/22 11:39:57;;;;;;;3.10;1.42;;;8.30;99.90;;;;;;5096906;27;20060;-58
2022/11/22 11:44:54;;;;;;;3.08;1.08;;;8.40;99.90;;;;;;5079368;28;20128;-57
2022/11/22 11:49:53;;;;;;;8.82;2.05;;;8.00;99.90;;;;;;5075679;28;20087;-57
2022/11/22 11:52:22;;;;;;;6.43;1.40;;;7.80;99.90;;;;;;5083927;28;20493;-57
2022/11/22 11:54:50;;;;;;;4.97;1.48;;;7.80;99.90;;;;;;5092768;28;20142;-58
2022/11/22 11:57:31;;;;;;;5.03;1.88;;;7.80;99.90;;;;;;5091958;28;20044;-57
2022/11/22 12:00:00;;;;;;;8.57;2.50;;;7.70;99.90;;;;;;5080566;28;20497;-57
2022/11/22 12:05:03;;;;;;;9.13;1.75;;;7.70;99.90;;;;;;5105979;27;20129;-57
2022/11/22 12:07:34;;;;;;;4.55;1.38;;;7.80;99.90;;;;;;5062195;28;20132;-58
2022/11/22 12:10:00;;;;;;;9.80;2.00;;;7.80;99.90;;;;;;5093245;28;20114;-57
2022/11/22 12:12:27;;;;;;;4.85;1.10;;;7.90;99.90;;;;;;5076589;28;20421;-59
2022/11/22 12:15:22;;;;;;;3.90;1.42;;;8.00;99.90;;;;;;5081027;28;20073;-58
2022/11/22 12:17:55;;;;;;;6.43;1.42;;;8.00;99.90;;;;;;5082179;27;21946;-62
2022/11/22 12:20:25;;;;;;;16.90;2.25;;;8.10;99.90;;;;;;5066378;28;20171;-62
2022/11/22 12:23:31;;;;;;;5.00;1.30;;;8.20;99.90;;;;;;5045641;28;20056;-57
2022/11/22 12:25:58;;;;;;;4.65;1.20;;;8.20;99.90;;;;;;5074294;28;20701;-61
2022/11/22 12:28:26;;;;;;;8.90;2.38;;;8.10;99.90;;;;;;5089320;27;20499;-61
2022/11/22 12:30:58;;;;;;;2.50;1.40;;;8.20;99.90;;;;;;5079117;28;21781;-64
2022/11/22 12:35:55;;;;;;;2.40;1.40;;;8.20;99.90;;;;;;5072547;28;20070;-59
2022/11/22 12:38:31;;;;;;;5.90;2.00;;;8.30;99.90;;;;;;5056401;28;20052;-58
2022/11/22 12:41:01;;;;;;;7.65;1.58;;;8.40;99.90;;;;;;5039186;28;20166;-64
2022/11/22 12:43:31;;;;;;;5.55;1.30;;;8.40;99.90;;;;;;5082455;27;20137;-58
2022/11/22 12:46:04;;;;;;;3.30;1.30;;;8.50;99.90;;;;;;5073112;28;20059;-60
2022/11/22 12:48:32;;;;;;;5.47;1.15;;;8.50;99.90;;;;;;5070528;28;20569;-60
2022/11/22 12:51:19;;;;;;;5.97;1.60;;;8.40;99.90;;;;;;5058596;28;20095;-58
2022/11/22 12:53:46;;;;;;;8.82;2.17;;;8.30;99.90;;;;;;5063966;28;20052;-57
2022/11/22 12:56:25;;;;;;;5.43;1.67;;;8.30;99.90;;;;;;5070730;28;20048;-58
2022/11/22 12:59:09;;;;;;;9.90;1.50;;;8.20;99.90;;;;;;5082358;28;20344;-57
2022/11/22 13:01:41;;;;;;;5.95;1.92;;;8.10;99.90;;;;;;5072435;28;20068;-59
2022/11/22 13:04:09;;;;;;;8.73;2.55;;;8.10;99.90;;;;;;5076052;28;20067;-59
2022/11/22 13:07:03;;;;;;;4.65;0.75;;;8.20;99.90;;;;;;5066370;28;20276;-62
2022/11/22 13:09:36;;;;;;;8.15;2.75;;;8.10;99.90;;;;;;5058819;28;20052;-65
2022/11/22 13:12:07;;;;;;;8.48;2.63;;;8.10;99.90;;;;;;5083343;28;20500;-57
2022/11/22 13:14:38;;;;;;;3.28;1.10;;;8.00;99.90;;;;;;5086802;28;20405;-58
2022/11/22 13:17:08;;;;;;;2.95;1.23;;;8.20;99.90;;;;;;5077570;28;20059;-62
2022/11/22 13:19:43;;;;;;;8.65;1.30;;;8.00;99.90;;;;;;5066092;28;20060;-59
2022/11/22 13:22:31;;;;;;;6.45;1.30;;;7.90;99.90;;;;;;5085790;27;20051;-59
2022/11/22 13:27:58;;;;;;;7.47;1.20;;;7.80;99.90;;;;;;5060131;28;20062;-59
2022/11/22 13:30:26;;;;;;;4.95;2.22;;;7.80;99.90;;;;;;5066700;28;20060;-62
2022/11/22 13:32:58;;;;;;;2.08;0.75;;;8.00;99.90;;;;;;5067391;28;20076;-59